sensor_id;sensor_type;location;lat;lon;timestamp;P1;durP1;ratioP1;P2;durP2;ratioP2
12328;SDS011;6230;52.390;10.256;2023-02-28T00:00:11;5.37;;;4.43;;
12328;SDS011;6230;52.390;10.256;2023-02-28T00:02:39;6.03;;;4.70;;
12328;SDS011;6230;52.390;10.256;2023-02-28T00:05:06;5.10;;;4.60;;
12328;SDS011;6230;52.390;10.256;2023-02-28T00:07:33;5.67;;;4.83;;
12328;SDS011;6230;52.390;10.256;2023-02-28T00:09:58;7.40;;;4.87;;
12328;SDS011;6230;52.390;10.256;2023-02-28T00:12:25;6.43;;;4.60;;
12328;SDS011;6230;52.390;10.256;2023-02-28T00:14:51;6.47;;;4.27;;
12328;SDS011;6230;52.390;10.256;2023-02-28T00:17:17;5.10;;;4.37;;
12328;SDS011;6230;52.390;10.256;2023-02-28T00:19:45;5.57;;;4.70;;
12328;SDS011;6230;52.390;10.256;2023-02-28T00:22:13;6.07;;;4.60;;
12328;SDS011;6230;52.390;10.256;2023-02-28T00:24:39;5.60;;;3.93;;
12328;SDS011;6230;52.390;10.256;2023-02-28T00:27:04;6.37;;;4.43;;
12328;SDS011;6230;52.390;10.256;2023-02-28T00:29:30;7.57;;;5.00;;
12328;SDS011;6230;52.390;10.256;2023-02-28T00:31:55;6.07;;;4.90;;
12328;SDS011;6230;52.390;10.256;2023-02-28T00:34:21;6.27;;;4.60;;
12328;SDS011;6230;52.390;10.256;2023-02-28T00:36:46;7.13;;;4.30;;
12328;SDS011;6230;52.390;10.256;2023-02-28T00:39:15;5.97;;;4.30;;
12328;SDS011;6230;52.390;10.256;2023-02-28T00:41:40;5.73;;;4.40;;
12328;SDS011;6230;52.390;10.256;2023-02-28T00:44:06;6.17;;;4.63;;
12328;SDS011;6230;52.390;10.256;2023-02-28T00:46:32;7.43;;;4.30;;
12328;SDS011;6230;52.390;10.256;2023-02-28T00:48:57;7.13;;;4.80;;
12328;SDS011;6230;52.390;10.256;2023-02-28T00:51:23;5.10;;;4.60;;
12328;SDS011;6230;52.390;10.256;2023-02-28T00:53:48;5.33;;;4.60;;
12328;SDS011;6230;52.390;10.256;2023-02-28T00:56:14;6.40;;;4.80;;
12328;SDS011;6230;52.390;10.256;2023-02-28T00:58:39;5.97;;;4.60;;
12328;SDS011;6230;52.390;10.256;2023-02-28T01:01:05;6.77;;;5.00;;
12328;SDS011;6230;52.390;10.256;2023-02-28T01:03:31;9.50;;;5.03;;
12328;SDS011;6230;52.390;10.256;2023-02-28T01:05:56;7.10;;;5.17;;
12328;SDS011;6230;52.390;10.256;2023-02-28T01:08:22;6.90;;;5.50;;
12328;SDS011;6230;52.390;10.256;2023-02-28T01:10:48;6.90;;;5.63;;
12328;SDS011;6230;52.390;10.256;2023-02-28T01:13:14;6.70;;;4.83;;
12328;SDS011;6230;52.390;10.256;2023-02-28T01:15:41;6.63;;;5.43;;
12328;SDS011;6230;52.390;10.256;2023-02-28T01:18:11;8.07;;;5.50;;
12328;SDS011;6230;52.390;10.256;2023-02-28T01:20:37;10.90;;;6.20;;
12328;SDS011;6230;52.390;10.256;2023-02-28T01:23:04;7.20;;;5.43;;
12328;SDS011;6230;52.390;10.256;2023-02-28T01:25:30;6.60;;;5.57;;
12328;SDS011;6230;52.390;10.256;2023-02-28T01:27:55;7.90;;;5.73;;
12328;SDS011;6230;52.390;10.256;2023-02-28T01:30:21;6.27;;;5.30;;
12328;SDS011;6230;52.390;10.256;2023-02-28T01:32:47;6.53;;;5.20;;
12328;SDS011;6230;52.390;10.256;2023-02-28T01:35:12;5.70;;;5.10;;
12328;SDS011;6230;52.390;10.256;2023-02-28T01:37:38;6.60;;;5.03;;
12328;SDS011;6230;52.390;10.256;2023-02-28T01:40:04;6.93;;;4.60;;
12328;SDS011;6230;52.390;10.256;2023-02-28T01:42:30;5.53;;;4.50;;
12328;SDS011;6230;52.390;10.256;2023-02-28T01:47:38;5.27;;;4.57;;
12328;SDS011;6230;52.390;10.256;2023-02-28T01:50:08;6.53;;;4.57;;
12328;SDS011;6230;52.390;10.256;2023-02-28T01:52:38;5.33;;;4.83;;
12328;SDS011;6230;52.390;10.256;2023-02-28T01:55:05;6.67;;;4.57;;
12328;SDS011;6230;52.390;10.256;2023-02-28T01:57:32;8.53;;;4.90;;
12328;SDS011;6230;52.390;10.256;2023-02-28T02:00:09;7.30;;;5.50;;
12328;SDS011;6230;52.390;10.256;2023-02-28T02:02:44;6.77;;;4.67;;
12328;SDS011;6230;52.390;10.256;2023-02-28T02:05:15;7.90;;;4.70;;
12328;SDS011;6230;52.390;10.256;2023-02-28T02:07:45;5.90;;;4.70;;
12328;SDS011;6230;52.390;10.256;2023-02-28T02:10:16;5.00;;;4.50;;
12328;SDS011;6230;52.390;10.256;2023-02-28T02:26:43;7.77;;;4.00;;
12328;SDS011;6230;52.390;10.256;2023-02-28T02:40:16;8.27;;;6.30;;
12328;SDS011;6230;52.390;10.256;2023-02-28T02:46:04;7.30;;;6.40;;
12328;SDS011;6230;52.390;10.256;2023-02-28T02:48:25;10.60;;;6.87;;
12328;SDS011;6230;52.390;10.256;2023-02-28T02:50:57;10.17;;;6.93;;
12328;SDS011;6230;52.390;10.256;2023-02-28T02:53:33;10.63;;;6.80;;
12328;SDS011;6230;52.390;10.256;2023-02-28T02:56:02;8.50;;;7.10;;
12328;SDS011;6230;52.390;10.256;2023-02-28T02:58:37;8.83;;;6.80;;
12328;SDS011;6230;52.390;10.256;2023-02-28T03:01:07;9.37;;;6.93;;
12328;SDS011;6230;52.390;10.256;2023-02-28T03:03:35;10.17;;;7.70;;
12328;SDS011;6230;52.390;10.256;2023-02-28T03:06:01;8.37;;;7.37;;
12328;SDS011;6230;52.390;10.256;2023-02-28T03:08:28;10.43;;;7.10;;
12328;SDS011;6230;52.390;10.256;2023-02-28T03:11:02;8.73;;;6.40;;
12328;SDS011;6230;52.390;10.256;2023-02-28T03:13:37;9.37;;;7.00;;
12328;SDS011;6230;52.390;10.256;2023-02-28T03:16:32;8.47;;;6.60;;
12328;SDS011;6230;52.390;10.256;2023-02-28T03:27:37;9.57;;;7.50;;
12328;SDS011;6230;52.390;10.256;2023-02-28T03:30:30;9.57;;;7.33;;
12328;SDS011;6230;52.390;10.256;2023-02-28T03:33:24;10.67;;;7.17;;
12328;SDS011;6230;52.390;10.256;2023-02-28T03:35:58;8.47;;;7.53;;
12328;SDS011;6230;52.390;10.256;2023-02-28T03:38:38;8.63;;;7.67;;
12328;SDS011;6230;52.390;10.256;2023-02-28T03:41:30;11.47;;;7.17;;
12328;SDS011;6230;52.390;10.256;2023-02-28T03:44:05;10.10;;;8.10;;
12328;SDS011;6230;52.390;10.256;2023-02-28T03:46:40;9.53;;;7.70;;
12328;SDS011;6230;52.390;10.256;2023-02-28T03:49:15;11.03;;;7.00;;
12328;SDS011;6230;52.390;10.256;2023-02-28T03:51:45;11.03;;;7.20;;
12328;SDS011;6230;52.390;10.256;2023-02-28T03:54:13;7.87;;;6.47;;
12328;SDS011;6230;52.390;10.256;2023-02-28T03:56:49;8.87;;;6.60;;
12328;SDS011;6230;52.390;10.256;2023-02-28T04:01:52;8.53;;;6.17;;
12328;SDS011;6230;52.390;10.256;2023-02-28T04:04:18;9.63;;;6.83;;
12328;SDS011;6230;52.390;10.256;2023-02-28T04:06:44;9.37;;;7.63;;
12328;SDS011;6230;52.390;10.256;2023-02-28T04:09:11;13.60;;;10.20;;
12328;SDS011;6230;52.390;10.256;2023-02-28T04:11:40;11.00;;;8.60;;
12328;SDS011;6230;52.390;10.256;2023-02-28T04:14:20;10.33;;;8.70;;
12328;SDS011;6230;52.390;10.256;2023-02-28T04:16:46;13.17;;;8.87;;
12328;SDS011;6230;52.390;10.256;2023-02-28T04:19:12;8.10;;;7.27;;
12328;SDS011;6230;52.390;10.256;2023-02-28T04:24:06;8.73;;;7.37;;
12328;SDS011;6230;52.390;10.256;2023-02-28T04:26:34;8.10;;;7.30;;
12328;SDS011;6230;52.390;10.256;2023-02-28T04:29:02;10.07;;;7.17;;
12328;SDS011;6230;52.390;10.256;2023-02-28T04:31:29;9.33;;;7.17;;
12328;SDS011;6230;52.390;10.256;2023-02-28T04:33:54;9.27;;;6.63;;
12328;SDS011;6230;52.390;10.256;2023-02-28T04:36:20;11.33;;;6.90;;
12328;SDS011;6230;52.390;10.256;2023-02-28T04:38:47;8.20;;;6.83;;
12328;SDS011;6230;52.390;10.256;2023-02-28T04:41:13;8.50;;;7.17;;
12328;SDS011;6230;52.390;10.256;2023-02-28T04:43:39;9.80;;;7.47;;
12328;SDS011;6230;52.390;10.256;2023-02-28T04:46:05;9.67;;;7.60;;
12328;SDS011;6230;52.390;10.256;2023-02-28T04:48:31;11.20;;;7.73;;
12328;SDS011;6230;52.390;10.256;2023-02-28T04:53:33;10.37;;;7.60;;
12328;SDS011;6230;52.390;10.256;2023-02-28T04:55:59;10.50;;;7.90;;
12328;SDS011;6230;52.390;10.256;2023-02-28T04:58:25;9.67;;;7.83;;
12328;SDS011;6230;52.390;10.256;2023-02-28T05:00:51;10.43;;;7.80;;
12328;SDS011;6230;52.390;10.256;2023-02-28T05:03:17;8.00;;;7.07;;
12328;SDS011;6230;52.390;10.256;2023-02-28T05:05:43;8.90;;;7.07;;
12328;SDS011;6230;52.390;10.256;2023-02-28T05:08:09;9.87;;;7.33;;
12328;SDS011;6230;52.390;10.256;2023-02-28T05:10:36;7.93;;;7.07;;
12328;SDS011;6230;52.390;10.256;2023-02-28T05:13:02;10.67;;;7.20;;
12328;SDS011;6230;52.390;10.256;2023-02-28T05:15:28;13.73;;;8.20;;
12328;SDS011;6230;52.390;10.256;2023-02-28T05:17:53;9.73;;;7.23;;
12328;SDS011;6230;52.390;10.256;2023-02-28T05:20:19;10.43;;;7.53;;
12328;SDS011;6230;52.390;10.256;2023-02-28T05:22:45;10.03;;;7.90;;
12328;SDS011;6230;52.390;10.256;2023-02-28T05:25:12;9.20;;;7.50;;
12328;SDS011;6230;52.390;10.256;2023-02-28T05:27:41;10.20;;;7.67;;
12328;SDS011;6230;52.390;10.256;2023-02-28T05:30:07;10.53;;;7.60;;
12328;SDS011;6230;52.390;10.256;2023-02-28T05:32:35;8.77;;;7.37;;
12328;SDS011;6230;52.390;10.256;2023-02-28T05:35:01;9.83;;;6.97;;
12328;SDS011;6230;52.390;10.256;2023-02-28T05:37:27;7.60;;;6.50;;
12328;SDS011;6230;52.390;10.256;2023-02-28T05:39:53;9.27;;;6.93;;
12328;SDS011;6230;52.390;10.256;2023-02-28T05:42:18;9.53;;;6.83;;
12328;SDS011;6230;52.390;10.256;2023-02-28T05:44:44;11.13;;;7.27;;
12328;SDS011;6230;52.390;10.256;2023-02-28T05:47:09;9.03;;;6.90;;
12328;SDS011;6230;52.390;10.256;2023-02-28T05:49:35;11.13;;;7.47;;
12328;SDS011;6230;52.390;10.256;2023-02-28T05:52:00;10.13;;;7.60;;
12328;SDS011;6230;52.390;10.256;2023-02-28T05:54:26;9.20;;;6.53;;
12328;SDS011;6230;52.390;10.256;2023-02-28T05:56:51;9.17;;;6.63;;
12328;SDS011;6230;52.390;10.256;2023-02-28T05:59:17;8.17;;;6.70;;
12328;SDS011;6230;52.390;10.256;2023-02-28T06:01:44;11.07;;;7.90;;
12328;SDS011;6230;52.390;10.256;2023-02-28T06:04:13;8.50;;;7.43;;
12328;SDS011;6230;52.390;10.256;2023-02-28T06:06:43;10.20;;;6.80;;
12328;SDS011;6230;52.390;10.256;2023-02-28T06:09:09;9.43;;;7.00;;
12328;SDS011;6230;52.390;10.256;2023-02-28T06:11:36;9.30;;;7.07;;
12328;SDS011;6230;52.390;10.256;2023-02-28T06:14:01;10.00;;;7.20;;
12328;SDS011;6230;52.390;10.256;2023-02-28T06:16:28;7.60;;;6.50;;
12328;SDS011;6230;52.390;10.256;2023-02-28T06:18:57;11.33;;;7.03;;
12328;SDS011;6230;52.390;10.256;2023-02-28T06:21:23;10.53;;;6.53;;
12328;SDS011;6230;52.390;10.256;2023-02-28T06:23:49;9.73;;;6.77;;
12328;SDS011;6230;52.390;10.256;2023-02-28T06:26:14;9.10;;;6.63;;
12328;SDS011;6230;52.390;10.256;2023-02-28T06:28:40;10.50;;;6.70;;
12328;SDS011;6230;52.390;10.256;2023-02-28T06:31:09;9.20;;;6.23;;
12328;SDS011;6230;52.390;10.256;2023-02-28T06:33:37;9.13;;;6.60;;
12328;SDS011;6230;52.390;10.256;2023-02-28T06:36:04;9.17;;;6.83;;
12328;SDS011;6230;52.390;10.256;2023-02-28T06:38:30;9.60;;;6.83;;
12328;SDS011;6230;52.390;10.256;2023-02-28T06:40:57;9.00;;;6.90;;
12328;SDS011;6230;52.390;10.256;2023-02-28T06:43:24;8.20;;;6.13;;
12328;SDS011;6230;52.390;10.256;2023-02-28T06:45:53;6.83;;;6.07;;
12328;SDS011;6230;52.390;10.256;2023-02-28T06:48:20;9.73;;;6.03;;
12328;SDS011;6230;52.390;10.256;2023-02-28T06:50:45;9.40;;;6.47;;
12328;SDS011;6230;52.390;10.256;2023-02-28T06:53:11;8.60;;;6.57;;
12328;SDS011;6230;52.390;10.256;2023-02-28T06:55:38;9.57;;;6.67;;
12328;SDS011;6230;52.390;10.256;2023-02-28T06:58:04;8.00;;;6.37;;
12328;SDS011;6230;52.390;10.256;2023-02-28T07:00:40;7.77;;;5.57;;
12328;SDS011;6230;52.390;10.256;2023-02-28T07:03:07;6.40;;;5.13;;
12328;SDS011;6230;52.390;10.256;2023-02-28T07:05:34;6.23;;;4.97;;
12328;SDS011;6230;52.390;10.256;2023-02-28T07:08:00;5.07;;;4.30;;
12328;SDS011;6230;52.390;10.256;2023-02-28T07:10:26;8.50;;;5.30;;
12328;SDS011;6230;52.390;10.256;2023-02-28T07:12:52;7.33;;;5.10;;
12328;SDS011;6230;52.390;10.256;2023-02-28T07:15:17;6.87;;;4.43;;
12328;SDS011;6230;52.390;10.256;2023-02-28T07:17:43;6.43;;;4.57;;
12328;SDS011;6230;52.390;10.256;2023-02-28T07:20:09;5.63;;;4.13;;
12328;SDS011;6230;52.390;10.256;2023-02-28T07:22:35;6.30;;;4.77;;
12328;SDS011;6230;52.390;10.256;2023-02-28T07:25:00;6.80;;;4.27;;
12328;SDS011;6230;52.390;10.256;2023-02-28T07:27:26;8.77;;;4.40;;
12328;SDS011;6230;52.390;10.256;2023-02-28T07:29:52;6.73;;;4.17;;
12328;SDS011;6230;52.390;10.256;2023-02-28T07:32:18;4.97;;;4.13;;
12328;SDS011;6230;52.390;10.256;2023-02-28T07:34:44;5.80;;;4.30;;
12328;SDS011;6230;52.390;10.256;2023-02-28T07:37:10;6.60;;;4.20;;
12328;SDS011;6230;52.390;10.256;2023-02-28T07:39:35;6.77;;;4.73;;
12328;SDS011;6230;52.390;10.256;2023-02-28T07:42:04;6.57;;;4.77;;
12328;SDS011;6230;52.390;10.256;2023-02-28T07:44:31;8.50;;;6.00;;
12328;SDS011;6230;52.390;10.256;2023-02-28T07:46:57;7.50;;;5.73;;
12328;SDS011;6230;52.390;10.256;2023-02-28T07:49:22;7.23;;;5.20;;
12328;SDS011;6230;52.390;10.256;2023-02-28T07:51:48;7.57;;;5.63;;
12328;SDS011;6230;52.390;10.256;2023-02-28T07:54:14;7.07;;;5.07;;
12328;SDS011;6230;52.390;10.256;2023-02-28T07:56:39;6.57;;;5.03;;
12328;SDS011;6230;52.390;10.256;2023-02-28T07:59:05;6.80;;;5.63;;
12328;SDS011;6230;52.390;10.256;2023-02-28T08:01:30;5.87;;;5.27;;
12328;SDS011;6230;52.390;10.256;2023-02-28T08:03:56;6.83;;;5.30;;
12328;SDS011;6230;52.390;10.256;2023-02-28T08:06:22;6.13;;;5.23;;
12328;SDS011;6230;52.390;10.256;2023-02-28T08:08:49;8.33;;;6.67;;
12328;SDS011;6230;52.390;10.256;2023-02-28T08:11:16;7.17;;;5.90;;
12328;SDS011;6230;52.390;10.256;2023-02-28T08:13:42;6.40;;;5.80;;
12328;SDS011;6230;52.390;10.256;2023-02-28T08:16:09;8.03;;;5.33;;
12328;SDS011;6230;52.390;10.256;2023-02-28T08:18:36;6.70;;;4.50;;
12328;SDS011;6230;52.390;10.256;2023-02-28T08:21:08;7.83;;;5.60;;
12328;SDS011;6230;52.390;10.256;2023-02-28T08:23:34;5.90;;;5.13;;
12328;SDS011;6230;52.390;10.256;2023-02-28T08:26:00;6.33;;;4.87;;
12328;SDS011;6230;52.390;10.256;2023-02-28T08:28:26;5.20;;;4.70;;
12328;SDS011;6230;52.390;10.256;2023-02-28T08:30:52;7.50;;;4.33;;
12328;SDS011;6230;52.390;10.256;2023-02-28T08:33:18;5.77;;;4.13;;
12328;SDS011;6230;52.390;10.256;2023-02-28T08:35:44;5.93;;;4.60;;
12328;SDS011;6230;52.390;10.256;2023-02-28T08:38:09;5.63;;;4.17;;
12328;SDS011;6230;52.390;10.256;2023-02-28T08:40:35;5.87;;;3.93;;
12328;SDS011;6230;52.390;10.256;2023-02-28T08:43:00;6.83;;;4.30;;
12328;SDS011;6230;52.390;10.256;2023-02-28T08:45:26;4.57;;;4.03;;
12328;SDS011;6230;52.390;10.256;2023-02-28T08:47:53;7.00;;;4.23;;
12328;SDS011;6230;52.390;10.256;2023-02-28T08:50:20;5.20;;;3.97;;
12328;SDS011;6230;52.390;10.256;2023-02-28T08:52:46;6.47;;;3.87;;
12328;SDS011;6230;52.390;10.256;2023-02-28T08:55:11;4.77;;;3.83;;
12328;SDS011;6230;52.390;10.256;2023-02-28T08:57:37;3.80;;;3.27;;
12328;SDS011;6230;52.390;10.256;2023-02-28T09:00:03;4.23;;;3.57;;
12328;SDS011;6230;52.390;10.256;2023-02-28T09:02:29;5.50;;;3.90;;
12328;SDS011;6230;52.390;10.256;2023-02-28T09:04:56;8.13;;;3.30;;
12328;SDS011;6230;52.390;10.256;2023-02-28T09:07:21;4.40;;;3.10;;
12328;SDS011;6230;52.390;10.256;2023-02-28T09:09:47;3.60;;;2.60;;
12328;SDS011;6230;52.390;10.256;2023-02-28T09:12:23;7.77;;;2.80;;
12328;SDS011;6230;52.390;10.256;2023-02-28T09:14:50;5.83;;;2.50;;
12328;SDS011;6230;52.390;10.256;2023-02-28T09:17:16;3.53;;;2.60;;
12328;SDS011;6230;52.390;10.256;2023-02-28T09:19:42;4.80;;;2.60;;
12328;SDS011;6230;52.390;10.256;2023-02-28T09:22:09;4.43;;;2.40;;
12328;SDS011;6230;52.390;10.256;2023-02-28T09:24:36;5.93;;;4.37;;
12328;SDS011;6230;52.390;10.256;2023-02-28T09:27:02;2.93;;;2.60;;
12328;SDS011;6230;52.390;10.256;2023-02-28T09:29:28;8.93;;;5.60;;
12328;SDS011;6230;52.390;10.256;2023-02-28T09:31:53;6.77;;;4.33;;
12328;SDS011;6230;52.390;10.256;2023-02-28T09:34:19;4.27;;;2.70;;
12328;SDS011;6230;52.390;10.256;2023-02-28T09:36:44;3.50;;;2.67;;
12328;SDS011;6230;52.390;10.256;2023-02-28T09:39:10;3.37;;;2.47;;
12328;SDS011;6230;52.390;10.256;2023-02-28T09:41:41;2.70;;;2.50;;
12328;SDS011;6230;52.390;10.256;2023-02-28T09:44:20;4.43;;;2.40;;
12328;SDS011;6230;52.390;10.256;2023-02-28T09:47:01;5.23;;;2.40;;
12328;SDS011;6230;52.390;10.256;2023-02-28T09:49:37;4.13;;;2.23;;
12328;SDS011;6230;52.390;10.256;2023-02-28T09:52:09;2.90;;;2.10;;
12328;SDS011;6230;52.390;10.256;2023-02-28T09:54:38;4.23;;;2.50;;
12328;SDS011;6230;52.390;10.256;2023-02-28T09:59:54;4.33;;;2.43;;
12328;SDS011;6230;52.390;10.256;2023-02-28T10:02:46;3.93;;;2.17;;
12328;SDS011;6230;52.390;10.256;2023-02-28T10:05:33;7.10;;;5.43;;
12328;SDS011;6230;52.390;10.256;2023-02-28T10:10:40;4.97;;;3.13;;
12328;SDS011;6230;52.390;10.256;2023-02-28T10:13:20;5.43;;;2.70;;
12328;SDS011;6230;52.390;10.256;2023-02-28T10:15:55;4.00;;;2.80;;
12328;SDS011;6230;52.390;10.256;2023-02-28T10:18:29;4.93;;;2.80;;
12328;SDS011;6230;52.390;10.256;2023-02-28T10:21:02;4.53;;;2.97;;
12328;SDS011;6230;52.390;10.256;2023-02-28T10:23:30;5.07;;;2.83;;
12328;SDS011;6230;52.390;10.256;2023-02-28T10:26:20;3.77;;;2.60;;
12328;SDS011;6230;52.390;10.256;2023-02-28T10:28:45;4.00;;;2.90;;
12328;SDS011;6230;52.390;10.256;2023-02-28T10:31:12;7.57;;;3.73;;
12328;SDS011;6230;52.390;10.256;2023-02-28T10:33:42;5.57;;;3.00;;
12328;SDS011;6230;52.390;10.256;2023-02-28T10:36:08;7.80;;;4.87;;
12328;SDS011;6230;52.390;10.256;2023-02-28T10:38:39;7.13;;;3.50;;
12328;SDS011;6230;52.390;10.256;2023-02-28T10:41:08;11.37;;;6.13;;
12328;SDS011;6230;52.390;10.256;2023-02-28T10:43:40;9.17;;;4.50;;
12328;SDS011;6230;52.390;10.256;2023-02-28T10:48:45;6.07;;;3.57;;
12328;SDS011;6230;52.390;10.256;2023-02-28T10:51:22;4.90;;;3.00;;
12328;SDS011;6230;52.390;10.256;2023-02-28T10:56:15;4.00;;;2.90;;
12328;SDS011;6230;52.390;10.256;2023-02-28T10:58:58;4.97;;;3.07;;
12328;SDS011;6230;52.390;10.256;2023-02-28T11:01:38;3.33;;;2.70;;
12328;SDS011;6230;52.390;10.256;2023-02-28T11:07:18;5.73;;;3.17;;
12328;SDS011;6230;52.390;10.256;2023-02-28T11:09:49;5.03;;;2.67;;
12328;SDS011;6230;52.390;10.256;2023-02-28T11:14:49;5.70;;;3.80;;
12328;SDS011;6230;52.390;10.256;2023-02-28T11:17:24;7.53;;;4.57;;
12328;SDS011;6230;52.390;10.256;2023-02-28T11:20:03;7.33;;;4.53;;
12328;SDS011;6230;52.390;10.256;2023-02-28T11:22:36;4.07;;;3.23;;
12328;SDS011;6230;52.390;10.256;2023-02-28T11:25:09;2.67;;;2.07;;
12328;SDS011;6230;52.390;10.256;2023-02-28T11:27:46;4.37;;;3.00;;
12328;SDS011;6230;52.390;10.256;2023-02-28T11:30:37;4.93;;;2.97;;
12328;SDS011;6230;52.390;10.256;2023-02-28T11:35:45;6.70;;;3.20;;
12328;SDS011;6230;52.390;10.256;2023-02-28T11:38:14;5.40;;;4.00;;
12328;SDS011;6230;52.390;10.256;2023-02-28T11:46:05;3.67;;;2.33;;
12328;SDS011;6230;52.390;10.256;2023-02-28T11:48:55;3.03;;;2.20;;
12328;SDS011;6230;52.390;10.256;2023-02-28T11:51:24;3.73;;;2.30;;
12328;SDS011;6230;52.390;10.256;2023-02-28T11:56:53;2.70;;;2.23;;
12328;SDS011;6230;52.390;10.256;2023-02-28T12:10:52;2.80;;;2.03;;
12328;SDS011;6230;52.390;10.256;2023-02-28T12:13:41;4.27;;;2.40;;
12328;SDS011;6230;52.390;10.256;2023-02-28T12:16:18;2.67;;;2.30;;
12328;SDS011;6230;52.390;10.256;2023-02-28T12:26:53;3.07;;;2.77;;
12328;SDS011;6230;52.390;10.256;2023-02-28T12:29:23;4.23;;;2.70;;
12328;SDS011;6230;52.390;10.256;2023-02-28T12:32:03;4.60;;;2.20;;
12328;SDS011;6230;52.390;10.256;2023-02-28T12:34:55;3.20;;;2.20;;
12328;SDS011;6230;52.390;10.256;2023-02-28T12:40:12;3.20;;;2.90;;
12328;SDS011;6230;52.390;10.256;2023-02-28T12:42:51;3.93;;;2.70;;
12328;SDS011;6230;52.390;10.256;2023-02-28T12:48:42;10.17;;;5.80;;
12328;SDS011;6230;52.390;10.256;2023-02-28T12:51:11;4.43;;;2.73;;
12328;SDS011;6230;52.390;10.256;2023-02-28T12:56:09;4.27;;;2.77;;
12328;SDS011;6230;52.390;10.256;2023-02-28T12:58:49;2.90;;;2.60;;
12328;SDS011;6230;52.390;10.256;2023-02-28T13:04:27;6.10;;;5.10;;
12328;SDS011;6230;52.390;10.256;2023-02-28T13:09:51;2.87;;;2.60;;
12328;SDS011;6230;52.390;10.256;2023-02-28T13:12:18;3.83;;;3.43;;
12328;SDS011;6230;52.390;10.256;2023-02-28T13:14:45;6.87;;;3.67;;
12328;SDS011;6230;52.390;10.256;2023-02-28T13:17:11;4.93;;;4.37;;
12328;SDS011;6230;52.390;10.256;2023-02-28T13:22:51;3.67;;;2.63;;
12328;SDS011;6230;52.390;10.256;2023-02-28T13:27:54;3.97;;;2.97;;
12328;SDS011;6230;52.390;10.256;2023-02-28T13:38:52;4.20;;;2.85;;
12328;SDS011;6230;52.390;10.256;2023-02-28T13:52:20;4.90;;;2.95;;
12328;SDS011;6230;52.390;10.256;2023-02-28T13:54:52;4.83;;;3.00;;
12328;SDS011;6230;52.390;10.256;2023-02-28T14:05:26;5.75;;;4.47;;
12328;SDS011;6230;52.390;10.256;2023-02-28T14:07:56;4.78;;;3.03;;
12328;SDS011;6230;52.390;10.256;2023-02-28T14:16:23;3.50;;;2.90;;
12328;SDS011;6230;52.390;10.256;2023-02-28T14:19:09;3.95;;;2.60;;
12328;SDS011;6230;52.390;10.256;2023-02-28T14:32:54;4.72;;;3.08;;
12328;SDS011;6230;52.390;10.256;2023-02-28T14:38:27;4.27;;;3.10;;
12328;SDS011;6230;52.390;10.256;2023-02-28T14:40:56;3.50;;;2.92;;
12328;SDS011;6230;52.390;10.256;2023-02-28T14:43:27;11.80;;;8.05;;
12328;SDS011;6230;52.390;10.256;2023-02-28T14:45:57;4.43;;;3.53;;
12328;SDS011;6230;52.390;10.256;2023-02-28T14:48:25;4.93;;;3.70;;
12328;SDS011;6230;52.390;10.256;2023-02-28T14:50:56;4.37;;;2.77;;
12328;SDS011;6230;52.390;10.256;2023-02-28T14:53:25;11.10;;;9.10;;
12328;SDS011;6230;52.390;10.256;2023-02-28T14:55:55;3.60;;;3.10;;
12328;SDS011;6230;52.390;10.256;2023-02-28T14:58:28;3.13;;;2.73;;
12328;SDS011;6230;52.390;10.256;2023-02-28T15:00:56;3.47;;;2.70;;
12328;SDS011;6230;52.390;10.256;2023-02-28T15:03:37;4.53;;;3.33;;
12328;SDS011;6230;52.390;10.256;2023-02-28T15:06:04;3.47;;;3.03;;
12328;SDS011;6230;52.390;10.256;2023-02-28T15:08:37;4.87;;;3.10;;
12328;SDS011;6230;52.390;10.256;2023-02-28T15:11:04;7.60;;;3.70;;
12328;SDS011;6230;52.390;10.256;2023-02-28T15:16:03;6.57;;;4.00;;
12328;SDS011;6230;52.390;10.256;2023-02-28T15:18:37;4.30;;;3.67;;
12328;SDS011;6230;52.390;10.256;2023-02-28T15:21:21;4.93;;;3.17;;
12328;SDS011;6230;52.390;10.256;2023-02-28T15:23:52;3.63;;;3.00;;
12328;SDS011;6230;52.390;10.256;2023-02-28T15:26:19;7.57;;;5.27;;
12328;SDS011;6230;52.390;10.256;2023-02-28T15:28:56;3.30;;;2.80;;
12328;SDS011;6230;52.390;10.256;2023-02-28T15:31:34;3.93;;;3.07;;
12328;SDS011;6230;52.390;10.256;2023-02-28T15:34:06;3.73;;;3.17;;
12328;SDS011;6230;52.390;10.256;2023-02-28T15:36:42;3.37;;;3.07;;
12328;SDS011;6230;52.390;10.256;2023-02-28T15:39:24;4.90;;;4.07;;
12328;SDS011;6230;52.390;10.256;2023-02-28T15:42:12;4.30;;;3.03;;
12328;SDS011;6230;52.390;10.256;2023-02-28T15:44:43;5.03;;;3.33;;
12328;SDS011;6230;52.390;10.256;2023-02-28T15:47:44;37.07;;;15.47;;
12328;SDS011;6230;52.390;10.256;2023-02-28T15:50:02;5.33;;;3.77;;
12328;SDS011;6230;52.390;10.256;2023-02-28T15:55:09;5.33;;;4.43;;
12328;SDS011;6230;52.390;10.256;2023-02-28T15:57:52;7.73;;;3.93;;
12328;SDS011;6230;52.390;10.256;2023-02-28T16:00:20;4.87;;;3.30;;
12328;SDS011;6230;52.390;10.256;2023-02-28T16:02:49;4.33;;;2.83;;
12328;SDS011;6230;52.390;10.256;2023-02-28T16:05:26;5.60;;;3.03;;
12328;SDS011;6230;52.390;10.256;2023-02-28T16:07:55;5.30;;;3.00;;
12328;SDS011;6230;52.390;10.256;2023-02-28T16:10:22;4.23;;;2.97;;
12328;SDS011;6230;52.390;10.256;2023-02-28T16:12:52;4.17;;;3.10;;
12328;SDS011;6230;52.390;10.256;2023-02-28T16:15:25;5.67;;;2.63;;
12328;SDS011;6230;52.390;10.256;2023-02-28T16:17:53;4.17;;;3.00;;
12328;SDS011;6230;52.390;10.256;2023-02-28T16:20:27;3.90;;;3.20;;
12328;SDS011;6230;52.390;10.256;2023-02-28T16:22:55;3.30;;;3.00;;
12328;SDS011;6230;52.390;10.256;2023-02-28T16:25:23;4.67;;;3.17;;
12328;SDS011;6230;52.390;10.256;2023-02-28T16:28:00;3.33;;;3.00;;
12328;SDS011;6230;52.390;10.256;2023-02-28T16:30:27;5.27;;;3.03;;
12328;SDS011;6230;52.390;10.256;2023-02-28T16:32:56;5.63;;;3.57;;
12328;SDS011;6230;52.390;10.256;2023-02-28T16:35:22;54.07;;;30.97;;
12328;SDS011;6230;52.390;10.256;2023-02-28T16:37:50;66.07;;;35.80;;
12328;SDS011;6230;52.390;10.256;2023-02-28T16:40:21;21.40;;;13.23;;
12328;SDS011;6230;52.390;10.256;2023-02-28T16:42:51;15.53;;;8.67;;
12328;SDS011;6230;52.390;10.256;2023-02-28T16:45:23;11.13;;;6.97;;
12328;SDS011;6230;52.390;10.256;2023-02-28T16:47:51;5.53;;;4.63;;
12328;SDS011;6230;52.390;10.256;2023-02-28T16:50:21;9.50;;;6.10;;
12328;SDS011;6230;52.390;10.256;2023-02-28T16:52:57;6.03;;;4.17;;
12328;SDS011;6230;52.390;10.256;2023-02-28T16:55:23;5.60;;;4.47;;
12328;SDS011;6230;52.390;10.256;2023-02-28T16:57:50;4.47;;;3.87;;
12328;SDS011;6230;52.390;10.256;2023-02-28T17:00:18;5.87;;;3.70;;
12328;SDS011;6230;52.390;10.256;2023-02-28T17:02:44;5.23;;;4.20;;
12328;SDS011;6230;52.390;10.256;2023-02-28T17:05:10;7.30;;;4.77;;
12328;SDS011;6230;52.390;10.256;2023-02-28T17:07:36;4.53;;;4.00;;
12328;SDS011;6230;52.390;10.256;2023-02-28T17:10:02;6.93;;;3.80;;
12328;SDS011;6230;52.390;10.256;2023-02-28T17:12:38;4.87;;;4.17;;
12328;SDS011;6230;52.390;10.256;2023-02-28T17:15:04;5.27;;;4.33;;
12328;SDS011;6230;52.390;10.256;2023-02-28T17:17:31;6.97;;;3.90;;
12328;SDS011;6230;52.390;10.256;2023-02-28T17:19:57;6.43;;;3.93;;
12328;SDS011;6230;52.390;10.256;2023-02-28T17:22:22;5.53;;;3.73;;
12328;SDS011;6230;52.390;10.256;2023-02-28T17:24:48;4.73;;;3.97;;
12328;SDS011;6230;52.390;10.256;2023-02-28T17:27:13;7.20;;;3.90;;
12328;SDS011;6230;52.390;10.256;2023-02-28T17:29:39;6.17;;;3.93;;
12328;SDS011;6230;52.390;10.256;2023-02-28T17:32:05;5.30;;;4.00;;
12328;SDS011;6230;52.390;10.256;2023-02-28T17:34:30;4.53;;;3.67;;
12328;SDS011;6230;52.390;10.256;2023-02-28T17:36:56;5.00;;;3.43;;
12328;SDS011;6230;52.390;10.256;2023-02-28T17:39:21;5.10;;;3.30;;
12328;SDS011;6230;52.390;10.256;2023-02-28T17:41:53;4.23;;;3.30;;
12328;SDS011;6230;52.390;10.256;2023-02-28T17:44:20;5.97;;;3.73;;